sensor_id;sensor_type;location;lat;lon;timestamp;P1;durP1;ratioP1;P2;durP2;ratioP2
54923;SDS011;40825;52.270;20.984;2023-03-23T00:01:16;29.30;;;16.20;;
54923;SDS011;40825;52.270;20.984;2023-03-23T00:03:51;30.10;;;15.30;;
54923;SDS011;40825;52.270;20.984;2023-03-23T00:06:18;26.20;;;14.70;;
54923;SDS011;40825;52.270;20.984;2023-03-23T00:08:48;29.70;;;15.40;;
54923;SDS011;40825;52.270;20.984;2023-03-23T00:11:22;28.60;;;15.10;;
54923;SDS011;40825;52.270;20.984;2023-03-23T00:13:51;27.20;;;14.90;;
54923;SDS011;40825;52.270;20.984;2023-03-23T00:16:21;28.00;;;14.80;;
54923;SDS011;40825;52.270;20.984;2023-03-23T00:18:56;28.00;;;14.10;;
54923;SDS011;40825;52.270;20.984;2023-03-23T00:21:25;27.00;;;14.10;;
54923;SDS011;40825;52.270;20.984;2023-03-23T00:24:17;26.00;;;14.70;;
54923;SDS011;40825;52.270;20.984;2023-03-23T00:26:47;27.70;;;13.30;;
54923;SDS011;40825;52.270;20.984;2023-03-23T00:29:15;25.70;;;14.10;;
54923;SDS011;40825;52.270;20.984;2023-03-23T00:31:44;26.70;;;14.50;;
54923;SDS011;40825;52.270;20.984;2023-03-23T00:34:12;28.70;;;13.80;;
54923;SDS011;40825;52.270;20.984;2023-03-23T00:36:44;27.60;;;15.40;;
54923;SDS011;40825;52.270;20.984;2023-03-23T00:39:11;26.00;;;14.80;;
54923;SDS011;40825;52.270;20.984;2023-03-23T00:41:37;27.80;;;13.70;;
54923;SDS011;40825;52.270;20.984;2023-03-23T00:44:03;29.20;;;15.20;;
54923;SDS011;40825;52.270;20.984;2023-03-23T00:46:29;30.10;;;15.70;;
54923;SDS011;40825;52.270;20.984;2023-03-23T00:48:55;27.10;;;15.50;;
54923;SDS011;40825;52.270;20.984;2023-03-23T00:51:22;32.10;;;16.30;;
54923;SDS011;40825;52.270;20.984;2023-03-23T00:53:48;30.40;;;16.40;;
54923;SDS011;40825;52.270;20.984;2023-03-23T00:56:14;29.60;;;16.00;;
54923;SDS011;40825;52.270;20.984;2023-03-23T00:58:40;31.20;;;16.30;;
54923;SDS011;40825;52.270;20.984;2023-03-23T01:01:07;30.90;;;16.00;;
54923;SDS011;40825;52.270;20.984;2023-03-23T01:03:33;29.10;;;16.90;;
54923;SDS011;40825;52.270;20.984;2023-03-23T01:06:07;29.20;;;15.40;;
54923;SDS011;40825;52.270;20.984;2023-03-23T01:08:38;29.80;;;17.00;;
54923;SDS011;40825;52.270;20.984;2023-03-23T01:11:11;33.30;;;17.90;;
54923;SDS011;40825;52.270;20.984;2023-03-23T01:13:39;28.30;;;15.80;;
54923;SDS011;40825;52.270;20.984;2023-03-23T01:16:07;31.50;;;16.10;;
54923;SDS011;40825;52.270;20.984;2023-03-23T01:18:33;30.00;;;16.30;;
54923;SDS011;40825;52.270;20.984;2023-03-23T01:21:03;29.20;;;16.20;;
54923;SDS011;40825;52.270;20.984;2023-03-23T01:23:31;28.60;;;15.20;;
54923;SDS011;40825;52.270;20.984;2023-03-23T01:25:57;28.70;;;15.30;;
54923;SDS011;40825;52.270;20.984;2023-03-23T01:28:28;29.70;;;16.40;;
54923;SDS011;40825;52.270;20.984;2023-03-23T01:30:58;30.00;;;16.00;;
54923;SDS011;40825;52.270;20.984;2023-03-23T01:33:25;30.80;;;15.40;;
54923;SDS011;40825;52.270;20.984;2023-03-23T01:35:51;32.70;;;16.10;;
54923;SDS011;40825;52.270;20.984;2023-03-23T01:38:17;28.20;;;15.30;;
54923;SDS011;40825;52.270;20.984;2023-03-23T01:40:43;28.30;;;15.30;;
54923;SDS011;40825;52.270;20.984;2023-03-23T01:43:12;29.20;;;16.80;;
54923;SDS011;40825;52.270;20.984;2023-03-23T01:45:40;28.80;;;16.10;;
54923;SDS011;40825;52.270;20.984;2023-03-23T01:48:12;29.10;;;15.80;;
54923;SDS011;40825;52.270;20.984;2023-03-23T01:50:43;27.10;;;15.20;;
54923;SDS011;40825;52.270;20.984;2023-03-23T01:53:17;27.90;;;14.30;;
54923;SDS011;40825;52.270;20.984;2023-03-23T01:55:45;26.90;;;15.30;;
54923;SDS011;40825;52.270;20.984;2023-03-23T01:58:17;28.70;;;14.80;;
54923;SDS011;40825;52.270;20.984;2023-03-23T02:00:46;27.40;;;15.20;;
54923;SDS011;40825;52.270;20.984;2023-03-23T02:03:13;28.00;;;14.90;;
54923;SDS011;40825;52.270;20.984;2023-03-23T02:05:43;26.90;;;14.80;;
54923;SDS011;40825;52.270;20.984;2023-03-23T02:08:09;27.60;;;15.30;;
54923;SDS011;40825;52.270;20.984;2023-03-23T02:10:37;26.60;;;14.10;;
54923;SDS011;40825;52.270;20.984;2023-03-23T02:13:04;28.60;;;15.00;;
54923;SDS011;40825;52.270;20.984;2023-03-23T02:15:54;25.40;;;14.50;;
54923;SDS011;40825;52.270;20.984;2023-03-23T02:18:31;28.90;;;15.40;;
54923;SDS011;40825;52.270;20.984;2023-03-23T02:26:33;23.10;;;12.90;;
54923;SDS011;40825;52.270;20.984;2023-03-23T02:35:10;26.60;;;14.70;;
54923;SDS011;40825;52.270;20.984;2023-03-23T02:37:50;22.90;;;13.70;;
54923;SDS011;40825;52.270;20.984;2023-03-23T02:40:21;25.10;;;12.70;;
54923;SDS011;40825;52.270;20.984;2023-03-23T02:42:52;23.60;;;13.00;;
54923;SDS011;40825;52.270;20.984;2023-03-23T02:45:20;25.00;;;12.50;;
54923;SDS011;40825;52.270;20.984;2023-03-23T02:47:48;25.80;;;12.90;;
54923;SDS011;40825;52.270;20.984;2023-03-23T02:50:16;21.80;;;12.30;;
54923;SDS011;40825;52.270;20.984;2023-03-23T02:55:12;25.20;;;13.30;;
54923;SDS011;40825;52.270;20.984;2023-03-23T02:57:39;21.40;;;12.00;;
54923;SDS011;40825;52.270;20.984;2023-03-23T03:00:06;24.60;;;12.90;;
54923;SDS011;40825;52.270;20.984;2023-03-23T03:02:38;24.70;;;13.00;;
54923;SDS011;40825;52.270;20.984;2023-03-23T03:05:11;21.90;;;13.40;;
54923;SDS011;40825;52.270;20.984;2023-03-23T03:10:42;23.60;;;13.40;;
54923;SDS011;40825;52.270;20.984;2023-03-23T03:18:20;24.80;;;13.80;;
54923;SDS011;40825;52.270;20.984;2023-03-23T03:20:51;23.00;;;12.50;;
54923;SDS011;40825;52.270;20.984;2023-03-23T03:23:23;23.00;;;12.70;;
54923;SDS011;40825;52.270;20.984;2023-03-23T03:25:51;24.10;;;12.60;;
54923;SDS011;40825;52.270;20.984;2023-03-23T03:28:19;23.40;;;13.10;;
54923;SDS011;40825;52.270;20.984;2023-03-23T03:30:49;24.10;;;12.30;;
54923;SDS011;40825;52.270;20.984;2023-03-23T03:33:19;20.70;;;11.70;;
54923;SDS011;40825;52.270;20.984;2023-03-23T03:35:45;22.30;;;12.80;;
54923;SDS011;40825;52.270;20.984;2023-03-23T03:38:12;23.70;;;11.70;;
54923;SDS011;40825;52.270;20.984;2023-03-23T03:40:38;22.50;;;11.70;;
54923;SDS011;40825;52.270;20.984;2023-03-23T03:43:04;23.10;;;13.50;;
54923;SDS011;40825;52.270;20.984;2023-03-23T03:45:32;27.70;;;13.40;;
54923;SDS011;40825;52.270;20.984;2023-03-23T03:47:57;22.40;;;12.00;;
54923;SDS011;40825;52.270;20.984;2023-03-23T03:50:23;24.30;;;11.90;;
54923;SDS011;40825;52.270;20.984;2023-03-23T03:52:48;24.50;;;12.70;;
54923;SDS011;40825;52.270;20.984;2023-03-23T03:55:14;23.20;;;13.20;;
54923;SDS011;40825;52.270;20.984;2023-03-23T03:57:40;24.10;;;12.40;;
54923;SDS011;40825;52.270;20.984;2023-03-23T04:00:07;25.60;;;13.00;;
54923;SDS011;40825;52.270;20.984;2023-03-23T04:02:51;23.00;;;13.40;;
54923;SDS011;40825;52.270;20.984;2023-03-23T04:05:19;20.10;;;11.80;;
54923;SDS011;40825;52.270;20.984;2023-03-23T04:07:46;23.10;;;11.50;;
54923;SDS011;40825;52.270;20.984;2023-03-23T04:10:14;22.90;;;11.60;;
54923;SDS011;40825;52.270;20.984;2023-03-23T04:12:40;23.90;;;12.40;;
54923;SDS011;40825;52.270;20.984;2023-03-23T04:15:06;23.00;;;13.90;;
54923;SDS011;40825;52.270;20.984;2023-03-23T04:17:33;21.80;;;12.50;;
54923;SDS011;40825;52.270;20.984;2023-03-23T04:20:01;23.30;;;12.50;;
54923;SDS011;40825;52.270;20.984;2023-03-23T04:22:32;22.00;;;11.90;;
54923;SDS011;40825;52.270;20.984;2023-03-23T04:24:58;22.10;;;11.80;;
54923;SDS011;40825;52.270;20.984;2023-03-23T04:27:26;23.00;;;11.90;;
54923;SDS011;40825;52.270;20.984;2023-03-23T04:29:54;26.00;;;12.70;;
54923;SDS011;40825;52.270;20.984;2023-03-23T04:32:21;22.00;;;11.70;;
54923;SDS011;40825;52.270;20.984;2023-03-23T04:34:47;21.50;;;11.20;;
54923;SDS011;40825;52.270;20.984;2023-03-23T04:37:13;20.90;;;11.10;;
54923;SDS011;40825;52.270;20.984;2023-03-23T04:39:39;20.50;;;11.50;;
54923;SDS011;40825;52.270;20.984;2023-03-23T04:42:05;22.20;;;12.10;;
54923;SDS011;40825;52.270;20.984;2023-03-23T04:44:30;23.10;;;11.60;;
54923;SDS011;40825;52.270;20.984;2023-03-23T04:47:00;25.30;;;11.10;;
54923;SDS011;40825;52.270;20.984;2023-03-23T04:49:26;24.00;;;12.80;;
54923;SDS011;40825;52.270;20.984;2023-03-23T04:51:52;20.80;;;12.50;;
54923;SDS011;40825;52.270;20.984;2023-03-23T04:54:17;23.30;;;11.50;;
54923;SDS011;40825;52.270;20.984;2023-03-23T04:56:43;21.60;;;10.80;;
54923;SDS011;40825;52.270;20.984;2023-03-23T04:59:08;24.10;;;11.50;;
54923;SDS011;40825;52.270;20.984;2023-03-23T05:01:34;22.30;;;11.20;;
54923;SDS011;40825;52.270;20.984;2023-03-23T05:04:02;20.10;;;11.10;;
54923;SDS011;40825;52.270;20.984;2023-03-23T05:06:27;22.40;;;11.40;;
54923;SDS011;40825;52.270;20.984;2023-03-23T05:08:53;22.50;;;10.90;;
54923;SDS011;40825;52.270;20.984;2023-03-23T05:11:18;24.40;;;11.00;;
54923;SDS011;40825;52.270;20.984;2023-03-23T05:13:44;22.00;;;11.30;;
54923;SDS011;40825;52.270;20.984;2023-03-23T05:16:09;23.40;;;11.20;;
54923;SDS011;40825;52.270;20.984;2023-03-23T05:18:35;22.70;;;10.50;;
54923;SDS011;40825;52.270;20.984;2023-03-23T05:21:01;21.70;;;11.10;;
54923;SDS011;40825;52.270;20.984;2023-03-23T05:23:28;19.90;;;12.20;;
54923;SDS011;40825;52.270;20.984;2023-03-23T05:25:57;18.90;;;10.70;;
54923;SDS011;40825;52.270;20.984;2023-03-23T05:28:28;19.20;;;10.20;;
54923;SDS011;40825;52.270;20.984;2023-03-23T05:30:55;18.20;;;9.60;;
54923;SDS011;40825;52.270;20.984;2023-03-23T05:33:21;20.00;;;10.80;;
54923;SDS011;40825;52.270;20.984;2023-03-23T05:35:47;21.00;;;11.00;;
54923;SDS011;40825;52.270;20.984;2023-03-23T05:38:13;21.70;;;10.60;;
54923;SDS011;40825;52.270;20.984;2023-03-23T05:40:40;19.60;;;10.40;;
54923;SDS011;40825;52.270;20.984;2023-03-23T05:43:09;20.60;;;11.10;;
54923;SDS011;40825;52.270;20.984;2023-03-23T05:45:35;20.20;;;10.30;;
54923;SDS011;40825;52.270;20.984;2023-03-23T05:48:01;24.20;;;11.40;;
54923;SDS011;40825;52.270;20.984;2023-03-23T05:50:26;19.20;;;10.80;;
54923;SDS011;40825;52.270;20.984;2023-03-23T05:52:54;19.00;;;10.40;;
54923;SDS011;40825;52.270;20.984;2023-03-23T05:55:20;20.20;;;10.20;;
54923;SDS011;40825;52.270;20.984;2023-03-23T05:57:45;22.10;;;10.60;;
54923;SDS011;40825;52.270;20.984;2023-03-23T06:00:11;21.60;;;11.20;;
54923;SDS011;40825;52.270;20.984;2023-03-23T06:02:47;19.70;;;10.40;;
54923;SDS011;40825;52.270;20.984;2023-03-23T06:05:14;21.20;;;10.60;;
54923;SDS011;40825;52.270;20.984;2023-03-23T06:07:42;20.00;;;10.50;;
54923;SDS011;40825;52.270;20.984;2023-03-23T06:10:08;19.80;;;10.30;;
54923;SDS011;40825;52.270;20.984;2023-03-23T06:12:36;18.70;;;10.20;;
54923;SDS011;40825;52.270;20.984;2023-03-23T06:15:03;17.80;;;10.00;;
54923;SDS011;40825;52.270;20.984;2023-03-23T06:17:32;18.30;;;9.70;;
54923;SDS011;40825;52.270;20.984;2023-03-23T06:19:58;17.10;;;9.60;;
54923;SDS011;40825;52.270;20.984;2023-03-23T06:22:23;21.20;;;10.70;;
54923;SDS011;40825;52.270;20.984;2023-03-23T06:24:50;20.40;;;10.40;;
54923;SDS011;40825;52.270;20.984;2023-03-23T06:27:15;19.50;;;10.80;;
54923;SDS011;40825;52.270;20.984;2023-03-23T06:29:42;19.10;;;9.10;;
54923;SDS011;40825;52.270;20.984;2023-03-23T06:32:11;19.30;;;9.60;;
54923;SDS011;40825;52.270;20.984;2023-03-23T06:34:38;20.10;;;9.90;;
54923;SDS011;40825;52.270;20.984;2023-03-23T06:37:08;19.80;;;10.90;;
54923;SDS011;40825;52.270;20.984;2023-03-23T06:39:34;19.10;;;10.50;;
54923;SDS011;40825;52.270;20.984;2023-03-23T06:42:01;18.20;;;9.40;;
54923;SDS011;40825;52.270;20.984;2023-03-23T06:44:26;18.60;;;9.70;;
54923;SDS011;40825;52.270;20.984;2023-03-23T06:46:52;19.10;;;10.00;;
54923;SDS011;40825;52.270;20.984;2023-03-23T06:49:17;16.70;;;9.20;;
54923;SDS011;40825;52.270;20.984;2023-03-23T06:51:43;17.50;;;9.20;;
54923;SDS011;40825;52.270;20.984;2023-03-23T06:54:08;15.70;;;8.90;;
54923;SDS011;40825;52.270;20.984;2023-03-23T06:56:34;18.40;;;10.00;;
54923;SDS011;40825;52.270;20.984;2023-03-23T06:59:01;16.10;;;10.20;;
54923;SDS011;40825;52.270;20.984;2023-03-23T07:01:26;18.20;;;10.00;;
54923;SDS011;40825;52.270;20.984;2023-03-23T07:03:53;17.40;;;9.20;;
54923;SDS011;40825;52.270;20.984;2023-03-23T07:06:20;19.70;;;9.20;;
54923;SDS011;40825;52.270;20.984;2023-03-23T07:08:46;19.20;;;8.60;;
54923;SDS011;40825;52.270;20.984;2023-03-23T07:11:12;20.30;;;9.90;;
54923;SDS011;40825;52.270;20.984;2023-03-23T07:13:38;16.60;;;8.80;;
54923;SDS011;40825;52.270;20.984;2023-03-23T07:16:06;21.20;;;9.10;;
54923;SDS011;40825;52.270;20.984;2023-03-23T07:18:33;17.70;;;9.90;;
54923;SDS011;40825;52.270;20.984;2023-03-23T07:20:58;18.40;;;9.90;;
54923;SDS011;40825;52.270;20.984;2023-03-23T07:23:25;16.20;;;9.00;;
54923;SDS011;40825;52.270;20.984;2023-03-23T07:25:50;16.70;;;9.50;;
54923;SDS011;40825;52.270;20.984;2023-03-23T07:28:17;16.90;;;8.50;;
54923;SDS011;40825;52.270;20.984;2023-03-23T07:30:43;16.30;;;8.20;;
54923;SDS011;40825;52.270;20.984;2023-03-23T07:33:09;17.50;;;8.70;;
54923;SDS011;40825;52.270;20.984;2023-03-23T07:35:35;13.60;;;8.00;;
54923;SDS011;40825;52.270;20.984;2023-03-23T07:38:02;16.70;;;8.40;;
54923;SDS011;40825;52.270;20.984;2023-03-23T07:40:29;18.20;;;8.50;;
54923;SDS011;40825;52.270;20.984;2023-03-23T07:42:58;15.00;;;7.20;;
54923;SDS011;40825;52.270;20.984;2023-03-23T07:45:25;13.60;;;7.90;;
54923;SDS011;40825;52.270;20.984;2023-03-23T07:47:52;13.40;;;7.30;;
54923;SDS011;40825;52.270;20.984;2023-03-23T07:50:18;15.10;;;7.40;;
54923;SDS011;40825;52.270;20.984;2023-03-23T07:52:47;16.30;;;7.00;;
54923;SDS011;40825;52.270;20.984;2023-03-23T07:55:13;15.60;;;7.00;;
54923;SDS011;40825;52.270;20.984;2023-03-23T07:57:43;15.10;;;6.90;;
54923;SDS011;40825;52.270;20.984;2023-03-23T08:00:09;12.50;;;6.80;;
54923;SDS011;40825;52.270;20.984;2023-03-23T08:02:38;12.70;;;6.40;;
54923;SDS011;40825;52.270;20.984;2023-03-23T08:05:04;13.50;;;6.40;;
54923;SDS011;40825;52.270;20.984;2023-03-23T08:07:30;11.80;;;5.60;;
54923;SDS011;40825;52.270;20.984;2023-03-23T08:09:55;12.10;;;6.00;;
54923;SDS011;40825;52.270;20.984;2023-03-23T08:12:21;11.30;;;5.90;;
54923;SDS011;40825;52.270;20.984;2023-03-23T08:14:46;13.80;;;6.30;;
54923;SDS011;40825;52.270;20.984;2023-03-23T08:17:13;12.30;;;6.00;;
54923;SDS011;40825;52.270;20.984;2023-03-23T08:19:40;12.20;;;5.90;;
54923;SDS011;40825;52.270;20.984;2023-03-23T08:22:05;11.70;;;5.60;;
54923;SDS011;40825;52.270;20.984;2023-03-23T08:24:31;13.40;;;5.90;;
54923;SDS011;40825;52.270;20.984;2023-03-23T08:26:58;10.90;;;5.40;;
54923;SDS011;40825;52.270;20.984;2023-03-23T08:29:24;11.40;;;5.40;;
54923;SDS011;40825;52.270;20.984;2023-03-23T08:31:50;11.80;;;5.60;;
54923;SDS011;40825;52.270;20.984;2023-03-23T08:34:16;10.40;;;4.70;;
54923;SDS011;40825;52.270;20.984;2023-03-23T08:36:42;12.50;;;5.60;;
54923;SDS011;40825;52.270;20.984;2023-03-23T08:39:09;10.90;;;5.60;;
54923;SDS011;40825;52.270;20.984;2023-03-23T08:41:35;11.90;;;5.50;;
54923;SDS011;40825;52.270;20.984;2023-03-23T08:44:01;10.40;;;5.20;;
54923;SDS011;40825;52.270;20.984;2023-03-23T08:46:26;11.60;;;5.00;;
54923;SDS011;40825;52.270;20.984;2023-03-23T08:48:52;13.00;;;5.30;;
54923;SDS011;40825;52.270;20.984;2023-03-23T08:51:19;10.90;;;5.00;;
54923;SDS011;40825;52.270;20.984;2023-03-23T08:53:44;12.40;;;5.40;;
54923;SDS011;40825;52.270;20.984;2023-03-23T08:56:11;9.90;;;4.70;;
54923;SDS011;40825;52.270;20.984;2023-03-23T08:58:37;10.40;;;4.70;;
54923;SDS011;40825;52.270;20.984;2023-03-23T09:01:04;9.60;;;4.90;;
54923;SDS011;40825;52.270;20.984;2023-03-23T09:03:31;10.80;;;4.60;;
54923;SDS011;40825;52.270;20.984;2023-03-23T09:06:01;10.70;;;4.80;;
54923;SDS011;40825;52.270;20.984;2023-03-23T09:08:29;10.70;;;5.10;;
54923;SDS011;40825;52.270;20.984;2023-03-23T09:10:58;9.60;;;4.00;;
54923;SDS011;40825;52.270;20.984;2023-03-23T09:13:24;10.60;;;4.30;;
54923;SDS011;40825;52.270;20.984;2023-03-23T09:15:50;9.70;;;4.20;;
54923;SDS011;40825;52.270;20.984;2023-03-23T09:18:16;9.70;;;3.60;;
54923;SDS011;40825;52.270;20.984;2023-03-23T09:20:42;8.20;;;4.10;;
54923;SDS011;40825;52.270;20.984;2023-03-23T09:23:08;8.80;;;4.50;;
54923;SDS011;40825;52.270;20.984;2023-03-23T09:25:35;9.90;;;3.90;;
54923;SDS011;40825;52.270;20.984;2023-03-23T09:28:01;9.60;;;3.40;;
54923;SDS011;40825;52.270;20.984;2023-03-23T09:30:27;8.80;;;3.10;;
54923;SDS011;40825;52.270;20.984;2023-03-23T09:32:55;10.40;;;3.70;;
54923;SDS011;40825;52.270;20.984;2023-03-23T09:35:22;10.60;;;4.00;;
54923;SDS011;40825;52.270;20.984;2023-03-23T09:37:49;10.90;;;3.70;;
54923;SDS011;40825;52.270;20.984;2023-03-23T09:46:21;7.90;;;2.90;;
54923;SDS011;40825;52.270;20.984;2023-03-23T09:48:59;7.20;;;3.70;;
54923;SDS011;40825;52.270;20.984;2023-03-23T09:56:59;8.20;;;3.10;;
54923;SDS011;40825;52.270;20.984;2023-03-23T09:59:31;7.30;;;3.10;;
54923;SDS011;40825;52.270;20.984;2023-03-23T10:04:47;6.70;;;2.70;;
54923;SDS011;40825;52.270;20.984;2023-03-23T10:07:22;8.80;;;3.60;;
54923;SDS011;40825;52.270;20.984;2023-03-23T10:09:54;8.10;;;2.80;;
54923;SDS011;40825;52.270;20.984;2023-03-23T10:17:47;6.30;;;2.70;;
54923;SDS011;40825;52.270;20.984;2023-03-23T10:20:21;5.70;;;2.40;;
54923;SDS011;40825;52.270;20.984;2023-03-23T10:25:29;8.50;;;2.30;;
54923;SDS011;40825;52.270;20.984;2023-03-23T10:30:55;7.00;;;1.80;;
54923;SDS011;40825;52.270;20.984;2023-03-23T10:33:29;6.20;;;2.10;;
54923;SDS011;40825;52.270;20.984;2023-03-23T10:36:06;7.20;;;2.10;;
54923;SDS011;40825;52.270;20.984;2023-03-23T10:38:48;3.70;;;1.80;;
54923;SDS011;40825;52.270;20.984;2023-03-23T10:43:45;6.50;;;2.20;;
54923;SDS011;40825;52.270;20.984;2023-03-23T10:48:41;6.30;;;2.30;;
54923;SDS011;40825;52.270;20.984;2023-03-23T10:51:09;6.40;;;2.30;;
54923;SDS011;40825;52.270;20.984;2023-03-23T10:53:42;8.20;;;2.60;;
54923;SDS011;40825;52.270;20.984;2023-03-23T10:56:21;5.80;;;2.30;;
54923;SDS011;40825;52.270;20.984;2023-03-23T10:58:52;7.10;;;2.80;;
54923;SDS011;40825;52.270;20.984;2023-03-23T11:01:19;6.90;;;2.80;;
54923;SDS011;40825;52.270;20.984;2023-03-23T11:03:53;7.30;;;2.30;;
54923;SDS011;40825;52.270;20.984;2023-03-23T11:06:20;7.40;;;2.60;;
54923;SDS011;40825;52.270;20.984;2023-03-23T11:08:52;5.80;;;2.50;;
54923;SDS011;40825;52.270;20.984;2023-03-23T11:11:25;6.70;;;2.50;;
54923;SDS011;40825;52.270;20.984;2023-03-23T11:14:00;6.40;;;2.40;;
54923;SDS011;40825;52.270;20.984;2023-03-23T11:16:32;9.10;;;2.30;;
54923;SDS011;40825;52.270;20.984;2023-03-23T11:18:59;6.30;;;2.00;;
54923;SDS011;40825;52.270;20.984;2023-03-23T11:21:37;4.80;;;1.90;;
54923;SDS011;40825;52.270;20.984;2023-03-23T11:24:04;4.80;;;1.90;;
54923;SDS011;40825;52.270;20.984;2023-03-23T11:26:31;4.30;;;1.60;;
54923;SDS011;40825;52.270;20.984;2023-03-23T11:29:08;4.10;;;1.50;;
54923;SDS011;40825;52.270;20.984;2023-03-23T11:31:36;6.70;;;1.70;;
54923;SDS011;40825;52.270;20.984;2023-03-23T11:34:15;4.80;;;1.40;;
54923;SDS011;40825;52.270;20.984;2023-03-23T11:36:51;5.80;;;2.00;;
54923;SDS011;40825;52.270;20.984;2023-03-23T11:39:29;5.50;;;1.50;;
54923;SDS011;40825;52.270;20.984;2023-03-23T11:42:11;5.80;;;1.60;;
54923;SDS011;40825;52.270;20.984;2023-03-23T11:44:44;4.30;;;1.80;;
54923;SDS011;40825;52.270;20.984;2023-03-23T11:53:20;5.70;;;1.80;;
54923;SDS011;40825;52.270;20.984;2023-03-23T11:58:46;5.50;;;1.70;;
54923;SDS011;40825;52.270;20.984;2023-03-23T12:01:16;6.10;;;1.40;;
54923;SDS011;40825;52.270;20.984;2023-03-23T12:06:59;6.20;;;2.00;;
54923;SDS011;40825;52.270;20.984;2023-03-23T12:10:38;3.50;;;1.50;;
54923;SDS011;40825;52.270;20.984;2023-03-23T12:12:50;4.60;;;1.60;;
54923;SDS011;40825;52.270;20.984;2023-03-23T12:33:59;5.50;;;1.80;;
54923;SDS011;40825;52.270;20.984;2023-03-23T12:48:02;5.80;;;2.30;;
54923;SDS011;40825;52.270;20.984;2023-03-23T12:50:33;5.20;;;1.50;;
54923;SDS011;40825;52.270;20.984;2023-03-23T12:53:11;6.30;;;2.10;;
54923;SDS011;40825;52.270;20.984;2023-03-23T12:58:44;6.20;;;2.00;;
54923;SDS011;40825;52.270;20.984;2023-03-23T13:06:36;7.20;;;1.80;;
54923;SDS011;40825;52.270;20.984;2023-03-23T13:11:54;8.40;;;2.30;;
54923;SDS011;40825;52.270;20.984;2023-03-23T13:17:05;6.60;;;2.60;;
54923;SDS011;40825;52.270;20.984;2023-03-23T13:19:45;6.40;;;2.80;;
54923;SDS011;40825;52.270;20.984;2023-03-23T13:22:31;5.70;;;2.50;;
54923;SDS011;40825;52.270;20.984;2023-03-23T13:25:03;8.10;;;2.40;;
54923;SDS011;40825;52.270;20.984;2023-03-23T13:27:34;7.50;;;2.20;;
54923;SDS011;40825;52.270;20.984;2023-03-23T13:30:00;8.50;;;2.70;;
54923;SDS011;40825;52.270;20.984;2023-03-23T13:32:37;6.30;;;2.50;;
54923;SDS011;40825;52.270;20.984;2023-03-23T13:35:11;8.90;;;3.00;;
54923;SDS011;40825;52.270;20.984;2023-03-23T13:37:50;6.40;;;2.40;;
54923;SDS011;40825;52.270;20.984;2023-03-23T13:40:28;5.60;;;2.50;;
54923;SDS011;40825;52.270;20.984;2023-03-23T13:42:57;6.30;;;2.30;;
54923;SDS011;40825;52.270;20.984;2023-03-23T13:53:24;6.10;;;1.90;;
54923;SDS011;40825;52.270;20.984;2023-03-23T13:56:05;6.30;;;2.00;;
54923;SDS011;40825;52.270;20.984;2023-03-23T13:58:51;5.30;;;1.60;;
54923;SDS011;40825;52.270;20.984;2023-03-23T14:01:36;5.30;;;1.80;;
54923;SDS011;40825;52.270;20.984;2023-03-23T14:04:10;6.70;;;1.80;;
54923;SDS011;40825;52.270;20.984;2023-03-23T14:06:39;4.10;;;1.40;;
54923;SDS011;40825;52.270;20.984;2023-03-23T14:09:09;5.30;;;1.50;;
54923;SDS011;40825;52.270;20.984;2023-03-23T14:11:51;4.70;;;1.70;;
54923;SDS011;40825;52.270;20.984;2023-03-23T14:14:28;5.00;;;2.10;;
54923;SDS011;40825;52.270;20.984;2023-03-23T14:17:06;6.40;;;2.20;;
54923;SDS011;40825;52.270;20.984;2023-03-23T14:19:37;6.70;;;2.20;;
54923;SDS011;40825;52.270;20.984;2023-03-23T14:22:04;7.20;;;2.30;;
54923;SDS011;40825;52.270;20.984;2023-03-23T14:24:43;7.70;;;2.70;;
54923;SDS011;40825;52.270;20.984;2023-03-23T14:29:43;5.70;;;2.40;;
54923;SDS011;40825;52.270;20.984;2023-03-23T14:32:16;5.30;;;2.20;;
54923;SDS011;40825;52.270;20.984;2023-03-23T14:34:46;6.10;;;2.50;;
54923;SDS011;40825;52.270;20.984;2023-03-23T14:37:13;7.50;;;2.50;;
54923;SDS011;40825;52.270;20.984;2023-03-23T14:39:43;7.30;;;2.90;;
54923;SDS011;40825;52.270;20.984;2023-03-23T14:42:11;6.30;;;2.50;;
54923;SDS011;40825;52.270;20.984;2023-03-23T14:44:43;7.50;;;2.50;;
54923;SDS011;40825;52.270;20.984;2023-03-23T14:49:56;6.90;;;2.90;;
54923;SDS011;40825;52.270;20.984;2023-03-23T14:52:32;6.60;;;2.80;;
54923;SDS011;40825;52.270;20.984;2023-03-23T14:55:19;8.60;;;3.20;;
54923;SDS011;40825;52.270;20.984;2023-03-23T14:57:46;7.40;;;2.80;;
54923;SDS011;40825;52.270;20.984;2023-03-23T15:00:35;8.10;;;2.90;;
54923;SDS011;40825;52.270;20.984;2023-03-23T15:03:03;8.10;;;3.10;;
54923;SDS011;40825;52.270;20.984;2023-03-23T15:05:34;8.80;;;3.30;;
54923;SDS011;40825;52.270;20.984;2023-03-23T15:08:14;7.40;;;2.70;;
54923;SDS011;40825;52.270;20.984;2023-03-23T15:11:04;7.60;;;3.30;;
54923;SDS011;40825;52.270;20.984;2023-03-23T15:13:31;8.50;;;3.50;;
54923;SDS011;40825;52.270;20.984;2023-03-23T15:16:01;7.90;;;3.10;;
54923;SDS011;40825;52.270;20.984;2023-03-23T15:18:34;6.00;;;2.40;;
54923;SDS011;40825;52.270;20.984;2023-03-23T15:21:19;7.50;;;2.90;;
54923;SDS011;40825;52.270;20.984;2023-03-23T15:23:48;8.40;;;3.20;;
54923;SDS011;40825;52.270;20.984;2023-03-23T15:26:48;7.00;;;3.00;;
54923;SDS011;40825;52.270;20.984;2023-03-23T15:31:44;8.60;;;3.40;;
54923;SDS011;40825;52.270;20.984;2023-03-23T15:36:58;6.10;;;2.50;;
54923;SDS011;40825;52.270;20.984;2023-03-23T15:39:30;6.60;;;3.10;;
54923;SDS011;40825;52.270;20.984;2023-03-23T15:41:57;6.10;;;2.50;;
54923;SDS011;40825;52.270;20.984;2023-03-23T15:44:28;10.20;;;3.10;;
54923;SDS011;40825;52.270;20.984;2023-03-23T15:47:17;8.30;;;2.50;;
54923;SDS011;40825;52.270;20.984;2023-03-23T15:49:46;7.40;;;2.90;;
54923;SDS011;40825;52.270;20.984;2023-03-23T15:52:13;5.40;;;2.30;;
54923;SDS011;40825;52.270;20.984;2023-03-23T15:54:47;6.40;;;2.50;;
54923;SDS011;40825;52.270;20.984;2023-03-23T15:57:13;8.40;;;3.20;;
54923;SDS011;40825;52.270;20.984;2023-03-23T15:59:39;7.90;;;3.20;;
54923;SDS011;40825;52.270;20.984;2023-03-23T16:02:04;7.70;;;2.70;;
54923;SDS011;40825;52.270;20.984;2023-03-23T16:04:30;7.30;;;2.80;;
54923;SDS011;40825;52.270;20.984;2023-03-23T16:06:57;7.50;;;2.90;;
54923;SDS011;40825;52.270;20.984;2023-03-23T16:09:23;10.40;;;2.80;;
54923;SDS011;40825;52.270;20.984;2023-03-23T16:11:49;8.40;;;3.30;;
54923;SDS011;40825;52.270;20.984;2023-03-23T16:14:14;8.20;;;3.50;;
54923;SDS011;40825;52.270;20.984;2023-03-23T16:16:44;8.10;;;3.20;;
54923;SDS011;40825;52.270;20.984;2023-03-23T16:19:12;7.30;;;2.80;;
54923;SDS011;40825;52.270;20.984;2023-03-23T16:21:39;7.50;;;3.00;;
54923;SDS011;40825;52.270;20.984;2023-03-23T16:24:06;6.70;;;2.80;;
54923;SDS011;40825;52.270;20.984;2023-03-23T16:26:32;7.00;;;2.80;;
54923;SDS011;40825;52.270;20.984;2023-03-23T16:28:58;7.60;;;2.90;;
54923;SDS011;40825;52.270;20.984;2023-03-23T16:31:24;6.50;;;2.80;;
54923;SDS011;40825;52.270;20.984;2023-03-23T16:33:49;5.50;;;2.20;;
54923;SDS011;40825;52.270;20.984;2023-03-23T16:36:15;6.00;;;2.90;;
54923;SDS011;40825;52.270;20.984;2023-03-23T16:38:40;7.30;;;3.90;;
54923;SDS011;40825;52.270;20.984;2023-03-23T16:41:07;6.80;;;3.00;;